createdAt,value
2019-02-05T00:00:42.051Z,6.37
2019-02-05T00:03:12.521Z,7.20
2019-02-05T00:05:41.122Z,7.97
2019-02-05T00:08:09.856Z,6.50
2019-02-05T00:10:38.530Z,7.57
2019-02-05T00:13:06.976Z,6.73
2019-02-05T00:15:35.859Z,7.70
2019-02-05T00:18:04.944Z,8.83
2019-02-05T00:20:33.503Z,6.27
2019-02-05T00:23:02.048Z,7.10
2019-02-05T00:25:30.564Z,7.23
2019-02-05T00:27:59.262Z,6.97
2019-02-05T00:30:28.289Z,7.03
2019-02-05T00:32:56.756Z,7.10
2019-02-05T00:35:25.341Z,8.00
2019-02-05T00:37:53.932Z,6.90
2019-02-05T00:40:22.540Z,6.57
2019-02-05T00:42:51.114Z,7.33
2019-02-05T00:45:20.577Z,8.07
2019-02-05T00:47:49.093Z,6.80
2019-02-05T00:50:19.085Z,6.77
2019-02-05T00:52:47.687Z,8.03
2019-02-05T00:55:17.888Z,7.07
2019-02-05T00:57:46.702Z,7.87
2019-02-05T01:00:30.893Z,6.87
2019-02-05T01:02:59.607Z,7.97
2019-02-05T01:05:28.305Z,7.63
2019-02-05T01:07:57.000Z,7.20
2019-02-05T01:10:26.709Z,8.47
2019-02-05T01:12:56.364Z,6.97
2019-02-05T01:15:26.169Z,7.00
2019-02-05T01:17:55.294Z,8.03
2019-02-05T01:20:24.288Z,8.60
2019-02-05T01:22:53.294Z,8.77
2019-02-05T01:25:22.294Z,8.40
2019-02-05T01:27:51.555Z,9.03
2019-02-05T01:30:26.225Z,6.33
2019-02-05T01:32:54.726Z,8.30
2019-02-05T01:35:23.799Z,8.33
2019-02-05T01:37:52.997Z,9.30
2019-02-05T01:40:27.765Z,7.77
2019-02-05T01:42:56.368Z,9.83
2019-02-05T01:45:25.237Z,8.70
2019-02-05T01:47:54.031Z,8.37
2019-02-05T01:50:24.703Z,8.03
2019-02-05T01:52:53.336Z,8.40
2019-02-05T01:55:22.539Z,7.93
2019-02-05T01:57:51.202Z,8.03
2019-02-05T02:00:31.015Z,9.03
2019-02-05T02:02:59.780Z,8.17
2019-02-05T02:05:28.384Z,8.27
2019-02-05T02:07:57.668Z,7.17
2019-02-05T02:10:29.102Z,9.90
2019-02-05T02:12:58.000Z,9.33
2019-02-05T02:15:26.749Z,10.40
2019-02-05T02:17:55.280Z,9.70
2019-02-05T02:20:24.264Z,8.50
2019-02-05T02:22:53.044Z,9.17
2019-02-05T02:25:21.567Z,8.13
2019-02-05T02:27:50.972Z,9.23
2019-02-05T02:30:22.530Z,9.03
2019-02-05T02:32:51.136Z,9.53
2019-02-05T02:35:19.733Z,8.83
2019-02-05T02:37:48.357Z,9.37
2019-02-05T02:40:16.955Z,9.27
2019-02-05T02:42:45.516Z,10.37
2019-02-05T02:45:15.517Z,9.13
2019-02-05T02:47:44.055Z,9.07
2019-02-05T02:50:17.797Z,8.40
2019-02-05T02:52:46.901Z,10.43
2019-02-05T02:55:15.604Z,9.90
2019-02-05T02:57:44.600Z,9.97
2019-02-05T03:00:18.352Z,8.53
2019-02-05T03:02:47.287Z,9.93
2019-02-05T03:05:18.180Z,8.80
2019-02-05T03:07:47.275Z,9.80
2019-02-05T03:10:18.953Z,8.83
2019-02-05T03:12:47.512Z,10.23
2019-02-05T03:15:16.378Z,8.07
2019-02-05T03:17:44.905Z,9.00
2019-02-05T03:20:15.615Z,10.47
2019-02-05T03:22:45.290Z,10.30
2019-02-05T03:25:17.476Z,9.23
2019-02-05T03:27:46.110Z,9.03
2019-02-05T03:30:17.343Z,10.27
2019-02-05T03:32:46.037Z,12.20
2019-02-05T03:35:15.040Z,11.23
2019-02-05T03:37:43.789Z,11.53
2019-02-05T03:40:21.514Z,10.00
2019-02-05T03:42:50.039Z,7.73
2019-02-05T03:45:19.133Z,10.87
2019-02-05T03:47:47.683Z,9.57
2019-02-05T03:50:16.376Z,14.60
2019-02-05T03:52:47.913Z,11.27
2019-02-05T03:55:34.728Z,12.87
2019-02-05T03:58:25.826Z,12.47
2019-02-05T04:01:13.933Z,12.53
2019-02-05T04:04:06.926Z,11.33
2019-02-05T04:06:57.899Z,11.27
2019-02-05T04:10:04.116Z,12.30
2019-02-05T04:13:06.568Z,15.03
2019-02-05T04:15:43.948Z,11.50
2019-02-05T04:18:24.156Z,12.07
2019-02-05T04:21:13.965Z,13.60
2019-02-05T04:24:08.088Z,11.00
2019-02-05T04:26:39.716Z,12.63
2019-02-05T04:29:20.368Z,14.27
2019-02-05T04:32:03.795Z,14.73
2019-02-05T04:34:35.429Z,12.13
2019-02-05T04:37:21.967Z,14.20
2019-02-05T04:40:11.777Z,12.67
2019-02-05T04:42:52.244Z,12.30
2019-02-05T04:45:35.640Z,14.60
2019-02-05T04:48:26.876Z,15.97
2019-02-05T04:51:04.377Z,13.27
2019-02-05T04:53:38.556Z,14.70
2019-02-05T04:56:30.973Z,15.50
2019-02-05T04:59:20.335Z,13.80
2019-02-05T05:01:57.586Z,15.10
2019-02-05T05:04:31.919Z,16.77
2019-02-05T05:07:28.716Z,14.47
2019-02-05T05:09:58.631Z,14.17
2019-02-05T05:12:27.874Z,16.23
2019-02-05T05:14:56.468Z,15.90
2019-02-05T05:17:25.135Z,14.80
2019-02-05T05:19:53.742Z,18.07
2019-02-05T05:22:22.314Z,14.20
2019-02-05T05:24:50.968Z,15.43
2019-02-05T05:27:20.057Z,15.47
2019-02-05T05:29:49.144Z,16.53
2019-02-05T05:32:18.711Z,18.73
2019-02-05T05:34:47.208Z,13.77
2019-02-05T05:37:14.593Z,13.23
2019-02-05T05:39:43.153Z,14.00
2019-02-05T05:42:11.729Z,13.73
2019-02-05T05:44:40.268Z,15.67
2019-02-05T05:47:08.801Z,15.23
2019-02-05T05:49:37.420Z,17.40
2019-02-05T05:52:06.107Z,14.67
2019-02-05T05:54:34.662Z,15.47
2019-02-05T05:57:03.197Z,15.03
2019-02-05T05:59:31.838Z,14.37
2019-02-05T06:02:00.488Z,14.30
2019-02-05T06:04:29.148Z,14.40
2019-02-05T06:06:57.712Z,17.77
2019-02-05T06:09:26.249Z,16.60
2019-02-05T06:11:54.777Z,16.57
2019-02-05T06:14:23.282Z,16.00
2019-02-05T06:16:51.865Z,15.47
2019-02-05T06:19:20.464Z,11.93
2019-02-05T06:21:49.020Z,16.03
2019-02-05T06:24:17.616Z,17.17
2019-02-05T06:26:46.212Z,14.97
2019-02-05T06:29:14.754Z,15.77
2019-02-05T06:31:43.244Z,14.57
2019-02-05T06:34:11.716Z,18.00
2019-02-05T06:36:40.654Z,15.87
2019-02-05T06:39:09.416Z,14.73
2019-02-05T06:41:38.349Z,16.50
2019-02-05T06:44:07.060Z,15.47
2019-02-05T06:46:35.693Z,15.60
2019-02-05T06:49:04.782Z,18.13
2019-02-05T06:51:33.324Z,16.63
2019-02-05T06:54:02.160Z,16.33
2019-02-05T06:56:30.706Z,14.70
2019-02-05T06:58:59.323Z,15.63
2019-02-05T07:01:27.861Z,16.67
2019-02-05T07:03:56.388Z,19.10
2019-02-05T07:06:24.992Z,16.23
2019-02-05T07:08:53.566Z,19.30
2019-02-05T07:11:22.569Z,15.93
2019-02-05T07:13:51.174Z,15.77
2019-02-05T07:16:19.729Z,17.57
2019-02-05T07:18:48.356Z,17.40
2019-02-05T07:21:17.024Z,17.30
2019-02-05T07:23:45.589Z,16.80
2019-02-05T07:26:14.148Z,17.40
2019-02-05T07:28:43.046Z,14.87
2019-02-05T07:31:11.661Z,15.57
2019-02-05T07:33:40.226Z,18.23
2019-02-05T07:36:08.922Z,15.40
2019-02-05T07:38:37.489Z,16.87
2019-02-05T07:41:06.060Z,17.53
2019-02-05T07:43:34.625Z,16.93
2019-02-05T07:46:03.926Z,15.53
2019-02-05T07:48:32.473Z,16.93
2019-02-05T07:51:01.051Z,16.67
2019-02-05T07:53:29.725Z,16.10
2019-02-05T07:55:58.319Z,19.90
2019-02-05T07:58:26.904Z,17.73
2019-02-05T08:00:58.838Z,17.05
2019-02-05T08:03:27.392Z,17.23
2019-02-05T08:05:56.087Z,15.97
2019-02-05T08:08:24.705Z,17.70
2019-02-05T08:10:53.261Z,19.67
2019-02-05T08:13:21.949Z,18.43
2019-02-05T08:15:50.577Z,21.00
2019-02-05T08:18:19.139Z,18.87
2019-02-05T08:20:47.721Z,18.23
2019-02-05T08:23:16.285Z,17.60
2019-02-05T08:25:45.251Z,22.70
2019-02-05T08:28:13.958Z,21.30
2019-02-05T08:30:47.985Z,19.10
2019-02-05T08:33:16.592Z,20.93
2019-02-05T08:35:45.252Z,20.87
2019-02-05T08:38:14.070Z,18.10
2019-02-05T08:40:43.342Z,21.80
2019-02-05T08:43:11.997Z,19.40
2019-02-05T08:45:40.621Z,19.90
2019-02-05T08:48:11.676Z,21.50
2019-02-05T08:50:40.398Z,23.53
2019-02-05T08:53:09.025Z,20.67
2019-02-05T08:55:37.664Z,23.43
2019-02-05T08:58:09.335Z,23.57
2019-02-05T09:00:40.227Z,23.03
2019-02-05T09:03:10.925Z,23.67
2019-02-05T09:05:39.851Z,23.70
2019-02-05T09:08:08.866Z,23.07
2019-02-05T09:10:39.904Z,22.57
2019-02-05T09:13:09.145Z,22.80
2019-02-05T09:15:37.709Z,24.27
2019-02-05T09:18:07.138Z,25.63
2019-02-05T09:20:35.817Z,24.57
2019-02-05T09:23:05.104Z,22.83
2019-02-05T09:25:33.729Z,24.93
2019-02-05T09:28:02.377Z,26.57
2019-02-05T09:30:36.042Z,25.47
2019-02-05T09:33:11.205Z,26.30
2019-02-05T09:35:39.873Z,25.10
2019-02-05T09:38:08.437Z,28.30
2019-02-05T09:40:37.150Z,26.50
2019-02-05T09:43:05.998Z,25.30
2019-02-05T09:45:35.198Z,20.70
2019-02-05T09:48:03.989Z,25.67
2019-02-05T09:50:43.765Z,26.67
2019-02-05T09:53:02.889Z,25.33
2019-02-05T09:55:31.495Z,27.57
2019-02-05T09:58:00.042Z,29.03
2019-02-05T10:00:31.577Z,27.37
2019-02-05T10:03:00.751Z,27.83
2019-02-05T10:05:33.508Z,28.93
2019-02-05T10:08:02.148Z,27.13
2019-02-05T10:10:30.808Z,26.50
2019-02-05T10:12:59.494Z,30.63
2019-02-05T10:15:30.610Z,27.67
2019-02-05T10:17:59.674Z,26.90
2019-02-05T10:20:28.374Z,27.60
2019-02-05T10:22:59.098Z,28.20
2019-02-05T10:25:27.749Z,28.30
2019-02-05T10:27:56.517Z,31.85
2019-02-05T10:30:30.974Z,28.43
2019-02-05T10:33:00.210Z,26.77
2019-02-05T10:35:28.773Z,30.10
2019-02-05T10:37:57.475Z,31.63
2019-02-05T10:40:26.704Z,30.20
2019-02-05T10:42:55.414Z,31.27
2019-02-05T10:45:25.961Z,36.13
2019-02-05T10:47:54.809Z,31.10
2019-02-05T10:50:24.027Z,36.07
2019-02-05T10:52:52.736Z,42.07
2019-02-05T10:55:24.304Z,33.10
2019-02-05T10:57:55.098Z,34.20
2019-02-05T11:00:31.650Z,36.63
2019-02-05T11:03:19.565Z,33.03
2019-02-05T11:05:48.205Z,32.73
2019-02-05T11:08:16.770Z,35.97
2019-02-05T11:10:45.573Z,29.67
2019-02-05T11:13:14.220Z,30.07
2019-02-05T11:15:42.783Z,27.93
2019-02-05T11:18:12.012Z,28.30
2019-02-05T11:20:40.603Z,29.97
2019-02-05T11:23:09.514Z,30.53
2019-02-05T11:25:38.920Z,30.03
2019-02-05T11:28:07.492Z,29.47
2019-02-05T11:30:41.877Z,28.47
2019-02-05T11:33:11.190Z,34.20
2019-02-05T11:35:39.839Z,29.53
2019-02-05T11:38:09.148Z,32.23
2019-02-05T11:40:40.409Z,32.47
2019-02-05T11:43:09.042Z,27.80
2019-02-05T11:45:37.704Z,27.60
2019-02-05T11:48:12.179Z,26.27
2019-02-05T11:50:40.986Z,25.63
2019-02-05T11:53:09.614Z,27.63
2019-02-05T11:55:38.573Z,26.17
2019-02-05T11:58:07.298Z,25.23
2019-02-05T12:00:40.678Z,30.03
2019-02-05T12:03:10.805Z,25.93
2019-02-05T12:05:39.607Z,28.23
2019-02-05T12:08:08.404Z,27.57
2019-02-05T12:10:37.061Z,28.63
2019-02-05T12:13:05.858Z,22.90
2019-02-05T12:15:34.514Z,24.83
2019-02-05T12:18:03.283Z,22.43
2019-02-05T12:20:31.862Z,24.37
2019-02-05T12:23:00.846Z,21.63
2019-02-05T12:25:29.694Z,22.40
2019-02-05T12:27:58.249Z,22.73
2019-02-05T12:30:29.492Z,23.37
2019-02-05T12:33:01.532Z,23.67
2019-02-05T12:35:28.979Z,24.57
2019-02-05T12:37:58.086Z,22.17
2019-02-05T12:40:26.674Z,25.00
2019-02-05T12:42:55.236Z,24.20
2019-02-05T12:45:27.103Z,24.40
2019-02-05T12:47:55.940Z,21.60
2019-02-05T12:50:26.942Z,21.03
2019-02-05T12:52:55.851Z,20.53
2019-02-05T12:55:24.877Z,21.13
2019-02-05T12:57:53.916Z,21.50
2019-02-05T13:00:28.182Z,21.53
2019-02-05T13:02:56.907Z,20.37
2019-02-05T13:05:25.833Z,21.97
2019-02-05T13:07:54.930Z,23.93
2019-02-05T13:10:38.773Z,22.50
2019-02-05T13:13:08.761Z,22.57
2019-02-05T13:15:37.463Z,22.13
2019-02-05T13:18:06.790Z,20.83
2019-02-05T13:20:35.422Z,22.27
2019-02-05T13:23:05.033Z,23.57
2019-02-05T13:25:34.662Z,21.07
2019-02-05T13:28:03.962Z,21.33
2019-02-05T13:30:34.202Z,21.83
2019-02-05T13:33:02.930Z,23.00
2019-02-05T13:35:32.157Z,16.80
2019-02-05T13:38:00.724Z,19.73
2019-02-05T13:40:29.959Z,22.37
2019-02-05T13:43:00.478Z,17.00
2019-02-05T13:45:51.326Z,22.40
2019-02-05T13:48:19.886Z,22.60
2019-02-05T13:50:48.451Z,22.23
2019-02-05T13:53:17.049Z,23.20
2019-02-05T13:55:46.241Z,23.23
2019-02-05T13:58:15.125Z,23.33
2019-02-05T14:00:46.069Z,22.17
2019-02-05T14:03:14.698Z,20.37
2019-02-05T14:05:44.003Z,20.07
2019-02-05T14:08:12.737Z,27.57
2019-02-05T14:10:43.550Z,24.53
2019-02-05T14:13:12.238Z,22.97
2019-02-05T14:15:46.798Z,24.67
2019-02-05T14:18:15.435Z,23.10
2019-02-05T14:20:44.068Z,24.10
2019-02-05T14:23:12.725Z,23.60
2019-02-05T14:25:41.394Z,19.07
2019-02-05T14:28:10.098Z,22.13
2019-02-05T14:30:44.429Z,22.33
2019-02-05T14:33:12.989Z,20.60
2019-02-05T14:35:41.724Z,21.60
2019-02-05T14:38:10.838Z,22.97
2019-02-05T14:40:39.474Z,23.73
2019-02-05T14:43:08.286Z,24.03
2019-02-05T14:45:37.933Z,25.70
2019-02-05T14:48:07.433Z,26.17
2019-02-05T14:50:38.874Z,24.93
2019-02-05T14:53:09.452Z,23.60
2019-02-05T14:55:38.006Z,24.37
2019-02-05T14:58:08.610Z,24.30
2019-02-05T15:00:38.132Z,23.90
2019-02-05T15:03:11.542Z,21.93
2019-02-05T15:05:40.541Z,19.00
2019-02-05T15:08:09.910Z,19.33
2019-02-05T15:10:38.481Z,15.80
2019-02-05T15:13:07.574Z,19.87
2019-02-05T15:15:36.232Z,18.43
2019-02-05T15:18:06.550Z,17.77
2019-02-05T15:20:40.641Z,15.47
2019-02-05T15:23:10.282Z,18.67
2019-02-05T15:25:38.921Z,18.13
2019-02-05T15:28:07.956Z,17.53
2019-02-05T15:30:41.713Z,19.73
2019-02-05T15:33:17.180Z,19.40
2019-02-05T15:35:53.857Z,22.33
2019-02-05T15:38:22.503Z,20.93
2019-02-05T15:40:51.264Z,24.37
2019-02-05T15:43:20.017Z,23.20
2019-02-05T15:45:48.598Z,23.13
2019-02-05T15:48:17.231Z,21.83
2019-02-05T15:50:45.788Z,26.03
2019-02-05T15:53:14.451Z,25.23
2019-02-05T15:55:43.640Z,24.93
2019-02-05T15:58:12.179Z,25.97
2019-02-05T16:00:40.834Z,23.77
2019-02-05T16:03:09.949Z,28.97
2019-02-05T16:05:38.598Z,27.87
2019-02-05T16:08:07.394Z,27.33
2019-02-05T16:10:36.074Z,26.50
2019-02-05T16:13:05.078Z,27.50
2019-02-05T16:15:33.644Z,26.73
2019-02-05T16:18:02.346Z,25.70
2019-02-05T16:20:30.993Z,23.60
2019-02-05T16:22:59.648Z,24.10
2019-02-05T16:25:28.198Z,22.83
2019-02-05T16:27:57.361Z,25.93
2019-02-05T16:30:27.361Z,24.17
2019-02-05T16:32:55.933Z,24.20
2019-02-05T16:35:25.349Z,23.50
2019-02-05T16:37:55.057Z,23.63
2019-02-05T16:40:35.169Z,22.27
2019-02-05T16:43:04.517Z,21.50
2019-02-05T16:45:33.321Z,20.83
2019-02-05T16:48:01.977Z,21.30
2019-02-05T16:50:42.310Z,21.97
2019-02-05T16:53:11.655Z,22.70
2019-02-05T16:55:40.211Z,23.17
2019-02-05T16:58:08.913Z,23.40
2019-02-05T17:00:38.540Z,21.37
2019-02-05T17:03:07.643Z,20.13
2019-02-05T17:05:38.641Z,20.63
2019-02-05T17:08:07.795Z,17.63
2019-02-05T17:10:36.357Z,18.77
2019-02-05T17:13:05.506Z,19.00
2019-02-05T17:15:34.048Z,17.63
2019-02-05T17:18:02.698Z,19.10
2019-02-05T17:20:32.899Z,18.63
2019-02-05T17:23:01.519Z,18.40
2019-02-05T17:25:30.121Z,18.33
2019-02-05T17:28:01.704Z,19.07
2019-02-05T17:30:33.198Z,17.93
2019-02-05T17:33:02.380Z,18.33
2019-02-05T17:35:31.012Z,18.93
2019-02-05T17:37:59.670Z,17.30
2019-02-05T17:40:28.672Z,17.27
2019-02-05T17:42:57.298Z,16.47
2019-02-05T17:45:28.418Z,16.67
2019-02-05T17:47:58.809Z,15.67
2019-02-05T17:50:27.514Z,16.43
2019-02-05T17:52:56.102Z,15.47
2019-02-05T17:55:24.754Z,14.73
2019-02-05T17:57:53.382Z,14.33
2019-02-05T18:00:25.766Z,14.60
2019-02-05T18:02:54.320Z,14.20
2019-02-05T18:05:23.050Z,15.20
2019-02-05T18:07:51.653Z,16.13
2019-02-05T18:10:23.305Z,15.27
2019-02-05T18:12:51.993Z,15.90
2019-02-05T18:15:35.885Z,16.63
2019-02-05T18:18:06.203Z,14.93
2019-02-05T18:20:35.239Z,15.77
2019-02-05T18:23:04.052Z,15.03
2019-02-05T18:25:32.904Z,14.73
2019-02-05T18:28:01.554Z,13.53
2019-02-05T18:30:35.177Z,13.37
2019-02-05T18:33:05.568Z,14.20
2019-02-05T18:35:34.468Z,14.23
2019-02-05T18:38:11.349Z,15.23
2019-02-05T18:40:39.998Z,16.33
2019-02-05T18:43:08.713Z,15.00
2019-02-05T18:45:37.292Z,15.50
2019-02-05T18:48:06.606Z,15.00
2019-02-05T18:50:35.561Z,16.60
2019-02-05T18:53:04.198Z,16.73
2019-02-05T18:55:35.913Z,16.43
2019-02-05T18:58:09.339Z,16.17
2019-02-05T19:00:38.733Z,15.33
2019-02-05T19:03:14.762Z,16.30
2019-02-05T19:05:38.237Z,16.60
2019-02-05T19:08:07.356Z,17.07
2019-02-05T19:10:36.129Z,16.70
2019-02-05T19:13:05.160Z,16.37
2019-02-05T19:15:38.939Z,17.67
2019-02-05T19:18:09.160Z,17.57
2019-02-05T19:20:38.110Z,16.17
2019-02-05T19:23:08.514Z,16.73
2019-02-05T19:25:48.160Z,17.70
2019-02-05T19:28:27.341Z,18.13
2019-02-05T19:30:57.677Z,18.10
2019-02-05T19:33:27.472Z,18.90
2019-02-05T19:35:56.405Z,19.77
2019-02-05T19:38:25.077Z,19.67
2019-02-05T19:40:57.580Z,19.63
2019-02-05T19:43:25.403Z,19.27
2019-02-05T19:46:01.804Z,20.40
2019-02-05T19:48:37.417Z,19.43
2019-02-05T19:51:05.829Z,18.57
2019-02-05T19:53:34.485Z,18.97
2019-02-05T19:56:03.822Z,18.87
2019-02-05T19:58:34.732Z,17.73
2019-02-05T20:01:03.291Z,18.20
2019-02-05T20:03:38.748Z,18.97
2019-02-05T20:06:02.167Z,18.97
2019-02-05T20:08:30.746Z,19.30
2019-02-05T20:11:00.865Z,18.80
2019-02-05T20:13:39.685Z,19.67
2019-02-05T20:16:00.566Z,17.85
2019-02-05T20:18:30.447Z,18.60
2019-02-05T20:21:00.345Z,18.17
2019-02-05T20:23:28.934Z,18.37
2019-02-05T20:25:57.505Z,17.73
2019-02-05T20:28:26.099Z,17.90
2019-02-05T20:30:55.056Z,18.30
2019-02-05T20:33:23.833Z,19.13
2019-02-05T20:35:52.778Z,17.53
2019-02-05T20:38:21.518Z,16.93
2019-02-05T20:40:50.089Z,16.63
2019-02-05T20:43:18.665Z,18.17
2019-02-05T20:45:47.242Z,17.97
2019-02-05T20:48:16.214Z,17.97
2019-02-05T20:50:44.790Z,19.07
2019-02-05T20:53:14.396Z,20.27
2019-02-05T20:55:43.125Z,16.63
2019-02-05T20:58:11.718Z,17.97
2019-02-05T21:00:40.299Z,17.77
2019-02-05T21:03:08.854Z,16.87
2019-02-05T21:05:37.959Z,17.57
2019-02-05T21:08:08.246Z,17.07
2019-02-05T21:10:36.821Z,18.50
2019-02-05T21:13:05.494Z,18.20
2019-02-05T21:15:34.270Z,19.30
2019-02-05T21:18:02.987Z,18.43
2019-02-05T21:20:34.036Z,16.87
2019-02-05T21:23:03.670Z,16.67
2019-02-05T21:25:32.383Z,17.47
2019-02-05T21:28:01.135Z,16.80
2019-02-05T21:30:29.765Z,16.80
2019-02-05T21:32:58.354Z,17.33
2019-02-05T21:35:26.981Z,18.10
2019-02-05T21:37:55.542Z,16.93
2019-02-05T21:40:26.989Z,16.80
2019-02-05T21:42:55.999Z,16.73
2019-02-05T21:45:31.137Z,16.97
2019-02-05T21:47:59.711Z,16.57
2019-02-05T21:50:28.438Z,17.27
2019-02-05T21:52:57.314Z,16.77
2019-02-05T21:55:27.122Z,16.93
2019-02-05T21:57:56.417Z,16.73
2019-02-05T22:00:30.302Z,16.37
2019-02-05T22:02:58.994Z,16.40
2019-02-05T22:05:28.985Z,17.17
2019-02-05T22:07:57.700Z,16.33
2019-02-05T22:10:29.012Z,16.90
2019-02-05T22:12:57.821Z,17.03
2019-02-05T22:15:26.789Z,16.20
2019-02-05T22:17:55.874Z,16.77
2019-02-05T22:20:26.658Z,16.40
2019-02-05T22:22:56.785Z,16.20
2019-02-05T22:25:29.132Z,15.87
2019-02-05T22:27:57.717Z,15.00
2019-02-05T22:30:28.547Z,15.87
2019-02-05T22:32:57.154Z,15.47
2019-02-05T22:35:25.803Z,14.60
2019-02-05T22:37:54.809Z,16.03
2019-02-05T22:40:26.066Z,13.57
2019-02-05T22:42:54.684Z,14.23
2019-02-05T22:45:31.590Z,12.77
2019-02-05T22:48:00.285Z,14.53
2019-02-05T22:50:36.903Z,13.07
2019-02-05T22:53:10.244Z,12.47
2019-02-05T22:55:38.896Z,12.37
2019-02-05T22:58:07.873Z,12.63
2019-02-05T23:00:55.044Z,12.23
2019-02-05T23:03:26.612Z,11.17
2019-02-05T23:06:13.874Z,10.93
2019-02-05T23:08:42.422Z,10.90
2019-02-05T23:11:45.538Z,10.17
2019-02-05T23:14:14.162Z,10.47
2019-02-05T23:16:42.715Z,10.03
2019-02-05T23:19:11.292Z,11.33
2019-02-05T23:21:40.413Z,10.47
2019-02-05T23:24:09.185Z,10.40
2019-02-05T23:26:37.693Z,10.77
2019-02-05T23:29:06.299Z,10.50
2019-02-05T23:31:34.748Z,10.10
2019-02-05T23:34:03.280Z,10.60
2019-02-05T23:36:31.875Z,10.57
2019-02-05T23:39:00.464Z,9.57
2019-02-05T23:41:29.019Z,10.30
2019-02-05T23:43:57.576Z,10.43
2019-02-05T23:46:26.123Z,10.10
2019-02-05T23:48:54.668Z,9.37
2019-02-05T23:51:23.143Z,9.87
2019-02-05T23:53:52.076Z,9.70
2019-02-05T23:56:25.683Z,9.50
2019-02-05T23:58:50.801Z,9.13
